Time;durP1;ratioP1;P1;durP2;ratioP2;P2;SDS_P1;SDS_P2;PMS_P1;PMS_P2;Temp;Humidity;BMP_temperature;BMP_pressure;BME280_temperature;BME280_humidity;BME280_pressure;Samples;Min_cycle;Max_cycle;Signal;HPM_P1;HPM_P2
2024/04/23 00:01:59;;;;;;;5.20;2.58;;;;;;;-146.27;65.80;46523.81;5471831;26;19998;-65
2024/04/23 00:04:24;;;;;;;5.15;2.70;;;;;;;-146.27;66.45;46525.81;5482784;26;20361;-65
2024/04/23 00:07:01;;;;;;;4.95;2.78;;;;;;;-146.27;67.11;46535.75;5478178;26;19999;-66
2024/04/23 00:09:28;;;;;;;9.27;3.55;;;;;;;-146.27;66.34;46539.75;5469235;26;20439;-64
2024/04/23 00:11:53;;;;;;;4.85;2.78;;;;;;;-146.27;66.97;46529.78;5471318;26;20009;-66
2024/04/23 00:14:19;;;;;;;6.28;3.22;;;;;;;-146.27;67.45;46509.88;5461115;26;19999;-66
2024/04/23 00:17:05;;;;;;;3.58;2.70;;;;;;;-146.27;67.64;46527.78;5482053;26;20014;-65
2024/04/23 00:19:31;;;;;;;6.32;3.20;;;;;;;-146.27;67.99;46470.06;5453553;26;20062;-67
2024/04/23 00:21:57;;;;;;;4.20;2.67;;;;;;;-146.27;68.62;46487.97;5464210;26;19994;-65
2024/04/23 00:24:22;;;;;;;4.80;3.45;;;;;;;-146.27;69.17;46444.19;5465735;26;20143;-66
2024/04/23 00:26:55;;;;;;;4.72;3.13;;;;;;;-146.27;69.65;46418.31;5484821;26;19995;-66
2024/04/23 00:29:22;;;;;;;6.18;3.30;;;;;;;-146.27;70.03;46404.38;5481282;26;19990;-67
2024/04/23 00:31:47;;;;;;;7.28;2.80;;;;;;;-146.27;69.78;46408.34;5457817;26;20067;-65
2024/04/23 00:34:12;;;;;;;4.03;3.00;;;;;;;-146.27;69.63;46400.38;5470282;26;20003;-65
2024/04/23 00:36:38;;;;;;;5.10;3.10;;;;;;;-146.27;69.57;46408.34;5456392;26;20398;-66
2024/04/23 00:39:03;;;;;;;5.40;3.50;;;;;;;-146.27;69.90;46406.34;5463964;26;20068;-67
2024/04/23 00:41:31;;;;;;;6.95;3.35;;;;;;;-146.27;70.68;46364.56;5463568;26;19999;-65
2024/04/23 00:43:56;;;;;;;12.95;3.30;;;;;;;-146.27;70.95;46370.53;5471164;26;19990;-68
2024/04/23 00:46:28;;;;;;;5.38;3.38;;;;;;;-146.27;70.67;46350.63;5473042;26;20006;-66
2024/04/23 00:48:54;;;;;;;5.25;3.30;;;;;;;-146.27;71.20;46324.75;5468696;26;20019;-66
2024/04/23 00:51:19;;;;;;;3.88;2.50;;;;;;;-146.27;71.17;46352.63;5463714;26;20071;-67
2024/04/23 00:53:45;;;;;;;4.75;3.05;;;;;;;-146.27;71.29;46344.66;5452946;26;20423;-67
2024/04/23 00:56:10;;;;;;;4.32;2.97;;;;;;;-146.27;71.86;46286.91;5471813;26;20488;-67
2024/04/23 00:58:36;;;;;;;7.07;3.10;;;;;;;-146.27;72.00;46296.88;5461346;26;20088;-66
2024/04/23 01:01:04;;;;;;;7.47;3.50;;;;;;;-146.27;72.78;46251.09;5452243;26;20455;-66
2024/04/23 01:03:30;;;;;;;4.93;3.30;;;;;;;-146.27;72.84;46261.03;5482310;26;20001;-66
2024/04/23 01:05:55;;;;;;;5.28;3.42;;;;;;;-146.27;72.79;46223.22;5492329;26;20013;-64
2024/04/23 01:08:20;;;;;;;7.10;3.28;;;;;;;-146.27;72.96;46213.25;5462012;26;20046;-66
2024/04/23 01:10:46;;;;;;;4.97;2.90;;;;;;;-146.27;72.76;46215.25;5456094;26;20006;-67
2024/04/23 01:13:11;;;;;;;8.57;3.08;;;;;;;-146.27;72.90;46229.19;5459979;26;20026;-67
2024/04/23 01:15:37;;;;;;;6.70;3.00;;;;;;;-146.27;72.87;46207.28;5473880;26;20067;-65
2024/04/23 01:18:05;;;;;;;7.55;3.85;;;;;;;-146.27;73.34;46165.50;5455971;26;19998;-65
2024/04/23 01:20:32;;;;;;;5.70;3.38;;;;;;;-146.27;73.50;46183.41;5468737;26;20365;-65
2024/04/23 01:23:38;;;;;;;5.13;3.42;;;;;;;-146.27;73.73;46149.56;5467055;26;20006;-66
2024/04/23 01:26:08;;;;;;;10.63;3.47;;;;;;;-146.27;74.08;46091.84;5447948;26;20117;-65
2024/04/23 01:28:38;;;;;;;5.55;3.63;;;;;;;-146.27;73.81;46145.59;5460992;26;20460;-68
2024/04/23 01:31:05;;;;;;;6.25;3.13;;;;;;;-146.27;73.73;46149.56;5467872;26;20150;-66
2024/04/23 01:33:34;;;;;;;9.98;3.83;;;;;;;-146.27;73.92;46127.66;5454914;26;20006;-65
2024/04/23 01:36:01;;;;;;;7.80;3.50;;;;;;;-146.27;73.96;46097.81;5475081;26;20469;-65
2024/04/23 01:38:26;;;;;;;5.82;3.55;;;;;;;-146.27;74.14;46093.81;5492764;26;20352;-66
2024/04/23 01:40:52;;;;;;;5.55;3.22;;;;;;;-146.27;74.30;46095.81;5482189;26;19998;-66
2024/04/23 01:43:18;;;;;;;6.43;3.03;;;;;;;-146.27;74.09;46105.78;5464239;26;20001;-66
2024/04/23 01:45:43;;;;;;;7.47;3.35;;;;;;;-146.27;73.94;46081.88;5479347;26;19998;-67
2024/04/23 01:48:09;;;;;;;4.63;3.50;;;;;;;-146.27;74.46;46061.97;5488238;26;20430;-70
2024/04/23 01:50:34;;;;;;;5.90;3.38;;;;;;;-146.27;74.07;46071.94;5460053;26;20023;-66
2024/04/23 01:53:00;;;;;;;4.75;3.28;;;;;;;-146.27;73.86;46073.91;5476708;26;20001;-67
2024/04/23 01:55:25;;;;;;;6.43;3.70;;;;;;;-146.27;73.75;46093.81;5458142;26;20025;-67
2024/04/23 01:57:50;;;;;;;8.10;3.53;;;;;;;-146.27;74.85;46046.06;5455925;26;19995;-66
2024/04/23 02:00:18;;;;;;;8.23;3.95;;;;;;;-146.27;74.88;46034.09;5453556;26;20447;-67
2024/04/23 02:02:46;;;;;;;5.70;3.80;;;;;;;-146.27;75.23;46030.13;5481062;26;20005;-67
2024/04/23 02:05:13;;;;;;;8.32;3.67;;;;;;;-146.27;75.64;45990.31;5480945;26;20469;-67
2024/04/23 02:07:39;;;;;;;10.48;3.83;;;;;;;-146.27;75.79;45982.34;5478353;26;20047;-67
2024/04/23 02:10:04;;;;;;;6.05;3.47;;;;;;;-146.27;75.79;45960.47;5482038;26;19998;-66
2024/04/23 02:12:30;;;;;;;5.80;3.83;;;;;;;-146.27;76.58;45888.81;5482227;26;19991;-67
2024/04/23 02:14:55;;;;;;;5.65;3.70;;;;;;;-146.27;76.14;45900.75;5455399;26;20003;-66
2024/04/23 02:17:21;;;;;;;8.50;3.67;;;;;;;-146.27;75.77;45878.84;5456145;26;20006;-67
2024/04/23 02:19:46;;;;;;;9.65;4.00;;;;;;;-146.27;76.12;45878.84;5487522;26;20342;-66
2024/04/23 02:22:11;;;;;;;6.18;3.15;;;;;;;-146.27;75.87;45872.88;5469981;26;19998;-66
2024/04/23 02:24:40;;;;;;;4.78;3.13;;;;;;;-146.27;75.62;45858.94;5478890;26;19999;-65
2024/04/23 02:27:05;;;;;;;11.07;3.30;;;;;;;-146.27;75.62;45878.84;5451849;26;19999;-68
2024/04/23 02:29:31;;;;;;;8.48;3.58;;;;;;;-146.27;75.07;45922.63;5461089;26;20457;-66
2024/04/23 02:32:00;;;;;;;6.82;3.95;;;;;;;-146.27;75.25;45904.72;5469758;26;20011;-66
2024/04/23 02:34:26;;;;;;;7.70;4.00;;;;;;;-146.27;75.32;45908.72;5476296;26;20021;-66
2024/04/23 02:36:53;;;;;;;7.05;3.97;;;;;;;-146.27;76.33;45858.94;5469557;26;19995;-66
2024/04/23 02:39:18;;;;;;;8.40;3.60;;;;;;;-146.27;76.25;45827.09;5464559;26;20335;-66
2024/04/23 02:41:51;;;;;;;14.13;4.22;;;;;;;-146.27;76.35;45837.06;5474417;26;20006;-66
2024/04/23 02:44:18;;;;;;;6.63;3.75;;;;;;;-146.27;75.94;45839.03;5456387;26;20500;-67
2024/04/23 02:46:44;;;;;;;7.68;3.75;;;;;;;-146.27;76.34;45819.13;5480411;26;20123;-66
2024/04/23 02:49:09;;;;;;;7.35;4.13;;;;;;;-146.27;75.98;45835.06;5483074;26;20475;-67
2024/04/23 02:51:34;;;;;;;5.80;3.78;;;;;;;-146.27;75.97;45827.09;5463629;26;20006;-67
2024/04/23 02:54:00;;;;;;;7.57;3.60;;;;;;;-146.27;76.28;45793.25;5450677;26;19999;-66
2024/04/23 02:56:26;;;;;;;7.75;3.95;;;;;;;-146.27;75.97;45807.19;5449488;26;19995;-68
2024/04/23 02:58:51;;;;;;;10.38;4.22;;;;;;;-146.27;76.50;45799.22;5483389;26;20008;-67
2024/04/23 03:01:17;;;;;;;9.50;4.20;;;;;;;-146.27;76.46;45797.25;5457785;26;20499;-65
2024/04/23 03:03:42;;;;;;;5.43;3.67;;;;;;;-146.27;76.47;45769.38;5458238;26;20328;-66
2024/04/23 03:06:08;;;;;;;5.45;3.90;;;;;;;-146.27;77.25;45747.47;5474335;26;20443;-65
2024/04/23 03:08:33;;;;;;;6.32;3.88;;;;;;;-146.27;77.05;45739.53;5451488;26;20067;-66
2024/04/23 03:10:58;;;;;;;8.27;4.05;;;;;;;-146.27;76.71;45723.59;5474998;26;20009;-65
2024/04/23 03:13:24;;;;;;;4.97;3.28;;;;;;;-146.27;76.97;45691.75;5472557;26;20457;-69
2024/04/23 03:15:49;;;;;;;6.30;3.60;;;;;;;-146.27;77.37;45679.81;5475778;26;20002;-69
2024/04/23 03:18:15;;;;;;;6.85;3.50;;;;;;;-146.27;77.08;45677.81;5453321;26;20010;-71
2024/04/23 03:20:40;;;;;;;8.48;3.60;;;;;;;-146.27;77.26;45647.97;5450005;26;20470;-69
2024/04/23 03:23:05;;;;;;;7.03;3.75;;;;;;;-146.27;76.78;45687.78;5474528;26;20531;-70
2024/04/23 03:25:31;;;;;;;6.53;3.30;;;;;;;-146.27;76.53;45703.69;5449292;26;20007;-70
2024/04/23 03:27:56;;;;;;;6.20;3.63;;;;;;;-146.27;76.21;45719.63;5482353;26;19994;-71
2024/04/23 03:30:22;;;;;;;6.88;3.50;;;;;;;-146.27;76.50;45695.72;5481354;26;20006;-70
2024/04/23 03:32:47;;;;;;;7.43;3.97;;;;;;;-146.27;76.93;45685.78;5451046;26;19991;-70
2024/04/23 03:35:12;;;;;;;6.10;3.72;;;;;;;-146.27;76.33;45719.63;5476498;26;19994;-69
2024/04/23 03:37:38;;;;;;;5.85;3.53;;;;;;;-146.27;76.92;45681.81;5479873;26;20006;-71
2024/04/23 03:40:04;;;;;;;6.68;3.88;;;;;;;-146.27;76.59;45683.78;5486273;26;20066;-69
2024/04/23 03:42:29;;;;;;;7.97;4.00;;;;;;;-146.27;76.58;45683.78;5485731;26;20006;-70
2024/04/23 03:44:54;;;;;;;13.00;3.63;;;;;;;-146.27;76.49;45667.88;5458240;26;20002;-71
2024/04/23 03:47:20;;;;;;;10.43;3.67;;;;;;;-146.27;76.54;45691.75;5467811;26;19994;-69
2024/04/23 03:49:45;;;;;;;7.28;4.05;;;;;;;-146.27;76.54;45663.88;5474614;26;20002;-69
2024/04/23 03:52:11;;;;;;;11.65;4.05;;;;;;;-146.27;76.51;45669.84;5463588;26;20046;-73
2024/04/23 03:54:36;;;;;;;8.95;4.22;;;;;;;-146.27;76.43;45683.78;5465185;26;20006;-69
2024/04/23 03:57:02;;;;;;;8.15;4.03;;;;;;;-146.27;76.64;45667.88;5450257;26;20002;-69
2024/04/23 03:59:27;;;;;;;6.15;3.65;;;;;;;-146.27;76.94;45636.03;5455226;26;20006;-70
2024/04/23 04:06:04;;;;;;;6.63;4.10;;;;;;;-146.27;76.53;45677.81;5481999;26;19990;-70
2024/04/23 04:07:22;;;;;;;7.93;3.88;;;;;;;-146.27;77.25;45636.03;5467480;26;20002;-70
2024/04/23 04:09:47;;;;;;;9.95;3.63;;;;;;;-146.27;77.31;45608.16;5462692;26;20009;-70
2024/04/23 04:12:13;;;;;;;7.32;3.65;;;;;;;-146.27;76.79;45638.00;5450988;26;20002;-70
2024/04/23 04:14:38;;;;;;;7.15;3.75;;;;;;;-146.27;76.91;45638.00;5460267;26;20003;-70
2024/04/23 04:17:04;;;;;;;7.10;3.30;;;;;;;-146.27;76.63;45649.94;5469550;26;20074;-71
2024/04/23 04:19:30;;;;;;;7.78;3.40;;;;;;;-146.27;76.62;45679.81;5486943;25;19994;-71
2024/04/23 04:21:58;;;;;;;5.63;3.70;;;;;;;-146.27;76.65;45673.84;5459103;25;20542;-70
2024/04/23 04:24:24;;;;;;;7.88;3.72;;;;;;;-146.27;77.01;45699.72;5477430;26;20002;-69
2024/04/23 04:26:49;;;;;;;6.35;3.70;;;;;;;-146.27;76.69;45683.78;5466329;26;20385;-71
2024/04/23 04:29:14;;;;;;;5.40;3.60;;;;;;;-146.27;76.88;45695.72;5482619;26;20081;-71
2024/04/23 04:31:40;;;;;;;7.15;3.63;;;;;;;-146.27;77.39;45689.75;5467867;26;20076;-70
2024/04/23 04:34:05;;;;;;;9.20;4.30;;;;;;;-146.27;77.44;45665.88;5456004;26;20024;-68
2024/04/23 04:36:30;;;;;;;5.25;3.15;;;;;;;-146.27;77.16;45713.66;5456041;26;20068;-66
2024/04/23 04:38:56;;;;;;;5.18;3.63;;;;;;;-146.27;77.52;45685.78;5455204;26;20431;-66
2024/04/23 04:41:22;;;;;;;7.15;3.47;;;;;;;-146.27;77.67;45681.81;5449227;26;20062;-67
2024/04/23 04:43:47;;;;;;;11.88;4.32;;;;;;;-146.27;77.19;45735.53;5463683;26;19995;-66
2024/04/23 04:46:14;;;;;;;7.53;3.40;;;;;;;-146.27;77.40;45757.44;5466469;26;20807;-66
2024/04/23 04:48:39;;;;;;;6.32;3.60;;;;;;;-146.27;77.31;45761.41;5465687;26;19995;-68
2024/04/23 04:51:04;;;;;;;8.98;4.05;;;;;;;-146.27;77.58;45791.28;5472514;26;19998;-68
2024/04/23 04:53:31;;;;;;;6.95;3.25;;;;;;;-146.27;77.76;45779.31;5472458;26;20034;-66
2024/04/23 04:55:56;;;;;;;6.57;3.75;;;;;;;-146.27;77.77;45795.25;5466720;26;20947;-67
2024/04/23 04:58:21;;;;;;;5.72;3.60;;;;;;;-146.27;77.91;45803.22;5464871;26;19995;-68
2024/04/23 05:00:51;;;;;;;8.68;3.83;;;;;;;-146.27;78.52;45801.22;5449670;26;20443;-66
2024/04/23 05:03:16;;;;;;;7.60;3.92;;;;;;;-146.27;78.72;45823.13;5476700;26;20003;-67
2024/04/23 05:05:41;;;;;;;7.30;4.22;;;;;;;-146.27;78.57;45793.25;5468445;26;20002;-68
2024/04/23 05:08:07;;;;;;;5.80;3.63;;;;;;;-146.27;78.14;45849.00;5465629;26;20392;-66
2024/04/23 05:10:32;;;;;;;11.95;4.25;;;;;;;-146.27;78.65;45819.13;5448096;26;20110;-65
2024/04/23 05:12:59;;;;;;;7.40;4.30;;;;;;;-146.27;78.76;45831.09;5449372;26;20006;-68
2024/04/23 05:15:24;;;;;;;8.95;4.35;;;;;;;-146.27;78.93;45803.22;5451778;26;19998;-70
2024/04/23 05:17:49;;;;;;;9.52;4.65;;;;;;;-146.27;78.75;45823.13;5458029;26;20010;-64
2024/04/23 05:20:15;;;;;;;12.27;4.75;;;;;;;-146.27;78.52;45803.22;5456455;26;19999;-67
2024/04/23 05:22:40;;;;;;;7.10;4.22;;;;;;;-146.27;78.20;45807.19;5470390;26;20299;-67
2024/04/23 05:25:06;;;;;;;6.13;3.65;;;;;;;-146.27;78.00;45835.06;5469490;26;20026;-65
2024/04/23 05:27:31;;;;;;;5.78;4.05;;;;;;;-146.27;78.06;45850.97;5470494;26;21350;-67
2024/04/23 05:29:57;;;;;;;7.93;3.92;;;;;;;-146.27;78.11;45811.19;5472617;26;19994;-67
2024/04/23 05:35:08;;;;;;;8.85;4.18;;;;;;;-146.27;77.68;45833.06;5453077;26;20446;-66
2024/04/23 05:37:34;;;;;;;7.05;3.97;;;;;;;-146.27;77.47;45811.19;5456386;26;19994;-67
2024/04/23 05:39:59;;;;;;;9.48;4.45;;;;;;;-146.27;77.50;45811.19;5469088;26;20005;-66
2024/04/23 05:42:25;;;;;;;9.13;4.13;;;;;;;-146.27;77.13;45819.13;5458055;26;20014;-67
2024/04/23 05:44:50;;;;;;;9.93;5.25;;;;;;;-146.27;76.83;45835.06;5460010;26;20049;-66
2024/04/23 05:47:15;;;;;;;5.75;3.83;;;;;;;-146.27;76.39;45841.03;5452036;26;19994;-65
2024/04/23 05:50:18;;;;;;;6.50;4.13;;;;;;;-146.27;75.95;45854.97;5469744;26;20011;-65
2024/04/23 05:53:21;;;;;;;10.40;3.75;;;;;;;-146.27;75.48;45874.88;5472581;26;20036;-66
2024/04/23 05:55:46;;;;;;;6.22;3.90;;;;;;;-146.27;75.08;45922.63;5457362;26;20010;-66
2024/04/23 05:58:12;;;;;;;7.55;3.72;;;;;;;-146.27;74.75;45902.75;5475000;26;20331;-67
2024/04/23 06:00:37;;;;;;;5.38;3.60;;;;;;;-146.27;74.80;45890.78;5472568;26;20013;-67
2024/04/23 06:03:03;;;;;;;8.05;4.32;;;;;;;-146.27;74.21;45916.66;5456606;26;20025;-66
2024/04/23 06:05:28;;;;;;;7.53;4.25;;;;;;;-146.27;74.08;45902.75;5465477;26;19994;-66
2024/04/23 06:07:55;;;;;;;6.57;3.58;;;;;;;-146.27;74.14;45918.66;5466941;26;20007;-67
2024/04/23 06:10:21;;;;;;;6.28;4.07;;;;;;;-146.27;73.12;45946.53;5461505;26;19998;-67
2024/04/23 06:12:47;;;;;;;9.40;4.20;;;;;;;-146.27;72.63;45970.41;5478252;26;19999;-68
2024/04/23 06:15:13;;;;;;;7.25;4.47;;;;;;;-146.27;71.84;46012.22;5455207;26;20078;-68
2024/04/23 06:17:38;;;;;;;7.63;3.80;;;;;;;-146.27;71.00;46040.09;5482967;26;20006;-68
2024/04/23 06:20:05;;;;;;;8.77;3.85;;;;;;;-146.27;69.81;46101.78;5457413;26;20047;-66
2024/04/23 06:22:35;;;;;;;7.22;4.40;;;;;;;-146.27;69.68;46129.66;5462657;26;20445;-66
2024/04/23 06:25:01;;;;;;;5.95;4.00;;;;;;;-146.27;69.53;46127.66;5465424;26;19990;-66
2024/04/23 06:27:27;;;;;;;6.30;3.90;;;;;;;-146.27;68.68;46117.72;5452211;26;19994;-66
2024/04/23 06:30:08;;;;;;;11.18;3.70;;;;;;;-146.27;67.95;46197.34;5477809;26;20027;-66
2024/04/23 06:32:39;;;;;;;5.85;4.05;;;;;;;-146.27;67.72;46189.38;5474175;26;19998;-67
2024/04/23 06:35:05;;;;;;;9.90;4.40;;;;;;;-146.27;67.99;46217.25;5480452;26;19990;-67
2024/04/23 06:37:32;;;;;;;7.03;4.13;;;;;;;-146.27;67.90;46205.31;5467839;26;20007;-66
2024/04/23 06:39:59;;;;;;;8.30;4.13;;;;;;;-146.27;66.97;46237.16;5465569;26;20339;-66
2024/04/23 06:42:24;;;;;;;5.85;3.88;;;;;;;-146.27;67.46;46201.31;5469012;26;20013;-67
2024/04/23 06:44:49;;;;;;;6.38;4.07;;;;;;;-146.27;66.75;46261.03;5485223;26;19994;-66
2024/04/23 06:47:16;;;;;;;6.85;3.85;;;;;;;-146.27;67.58;46213.25;5481980;26;20001;-65
2024/04/23 06:49:43;;;;;;;6.50;3.80;;;;;;;-146.27;66.93;46257.06;5474735;26;20331;-66
2024/04/23 06:52:11;;;;;;;8.07;4.47;;;;;;;-146.27;67.90;46229.19;5481273;26;20059;-67
2024/04/23 06:54:37;;;;;;;7.88;4.72;;;;;;;-146.27;66.75;46247.09;5486476;26;20042;-71
2024/04/23 06:57:03;;;;;;;7.15;4.18;;;;;;;-146.27;68.74;46207.28;5481991;26;19999;-70
2024/04/23 06:59:28;;;;;;;7.55;4.22;;;;;;;-146.27;67.76;46229.19;5480046;26;20054;-70
2024/04/23 07:01:54;;;;;;;11.77;4.72;;;;;;;-146.27;68.53;46209.28;5486844;26;20002;-71
2024/04/23 07:04:19;;;;;;;7.13;4.93;;;;;;;-146.27;67.98;46207.28;5477454;26;20748;-69
2024/04/23 07:06:45;;;;;;;6.97;4.25;;;;;;;-146.27;67.20;46237.16;5481044;26;20459;-69
2024/04/23 07:09:11;;;;;;;8.90;4.35;;;;;;;-146.27;67.72;46233.16;5485939;26;19995;-69
2024/04/23 07:11:37;;;;;;;4.65;3.53;;;;;;;-146.27;66.48;46237.16;5462520;26;20372;-69
2024/04/23 07:14:03;;;;;;;6.95;4.25;;;;;;;-146.27;68.04;46201.31;5486328;26;19994;-70
2024/04/23 07:16:32;;;;;;;6.60;3.72;;;;;;;-146.27;66.79;46229.19;5484084;26;20021;-72
2024/04/23 07:18:57;;;;;;;7.18;4.50;;;;;;;-146.27;64.97;46272.97;5483900;26;20458;-69
2024/04/23 07:21:23;;;;;;;7.22;4.05;;;;;;;-146.27;64.42;46324.75;5486450;26;20006;-72
2024/04/23 07:23:48;;;;;;;5.68;3.72;;;;;;;-146.27;63.60;46340.66;5469248;26;20007;-69
2024/04/23 07:26:14;;;;;;;6.25;3.90;;;;;;;-146.27;62.70;46384.47;5462703;26;20448;-69
2024/04/23 07:28:43;;;;;;;6.47;3.92;;;;;;;-146.27;63.11;46348.63;5478968;26;19994;-71
2024/04/23 07:31:08;;;;;;;6.22;3.40;;;;;;;-146.27;57.85;46452.16;5484429;26;19994;-71
2024/04/23 07:33:34;;;;;;;6.38;3.35;;;;;;;-146.27;58.75;46406.34;5462713;26;20002;-71
2024/04/23 07:35:59;;;;;;;9.98;3.88;;;;;;;-146.27;57.64;46452.16;5473305;26;20016;-71
2024/04/23 07:38:25;;;;;;;7.47;4.50;;;;;;;-146.27;57.60;46503.91;5473667;26;20495;-70
2024/04/23 07:40:50;;;;;;;7.35;3.85;;;;;;;-146.27;57.79;46533.78;5466814;26;19999;-71
2024/04/23 07:43:16;;;;;;;6.53;4.10;;;;;;;-146.27;57.81;46527.78;5485388;26;20443;-70
2024/04/23 07:45:42;;;;;;;10.82;4.00;;;;;;;-146.27;57.10;46571.59;5485991;26;20009;-69
2024/04/23 07:48:09;;;;;;;7.28;3.92;;;;;;;-146.27;56.96;46577.56;5486323;26;20002;-69
2024/04/23 07:50:35;;;;;;;10.77;4.00;;;;;;;-146.27;55.50;46547.72;5485561;26;19998;-68
2024/04/23 07:53:04;;;;;;;5.38;3.60;;;;;;;-146.27;52.84;46623.34;5481603;26;20003;-70
2024/04/23 07:55:30;;;;;;;6.88;4.03;;;;;;;-146.27;53.58;46635.31;5480817;26;19990;-69
2024/04/23 07:57:56;;;;;;;5.70;3.63;;;;;;;-146.27;51.10;46655.22;5482620;26;20082;-70
2024/04/23 08:00:24;;;;;;;4.53;3.40;;;;;;;-146.27;50.25;46734.84;5455615;26;20323;-69
2024/04/23 08:02:56;;;;;;;5.60;3.40;;;;;;;-146.27;49.91;46718.91;5479863;26;20379;-70
2024/04/23 08:05:22;;;;;;;5.43;3.35;;;;;;;-146.27;47.63;46786.59;5458123;26;20022;-67
2024/04/23 08:07:48;;;;;;;4.95;3.28;;;;;;;-146.27;47.90;46770.69;5476197;26;20009;-70
2024/04/23 08:10:19;;;;;;;4.63;3.05;;;;;;;-146.27;48.66;46818.47;5485885;26;19998;-67
2024/04/23 08:12:46;;;;;;;3.88;3.10;;;;;;;-146.27;50.76;46818.47;5456773;26;19998;-66
2024/04/23 08:15:12;;;;;;;4.88;3.10;;;;;;;-146.27;47.54;46854.31;5477879;26;20026;-67
2024/04/23 08:17:37;;;;;;;5.50;3.60;;;;;;;-146.27;52.01;46826.44;5483534;26;20430;-70
2024/04/23 08:20:03;;;;;;;5.40;2.92;;;;;;;-146.27;49.38;46846.34;5481933;26;20013;-66
2024/04/23 08:22:31;;;;;;;6.45;3.33;;;;;;;-146.27;45.88;46852.31;5480893;26;20004;-66
2024/04/23 08:24:57;;;;;;;4.30;3.25;;;;;;;-146.27;47.07;46862.25;5452762;26;20335;-68
2024/04/23 08:27:22;;;;;;;4.30;3.13;;;;;;;-146.27;45.11;46925.97;5484461;26;20006;-66
2024/04/23 08:29:48;;;;;;;6.72;3.08;;;;;;;-146.27;46.52;46939.91;5483722;26;20433;-68
2024/04/23 08:32:14;;;;;;;4.93;3.50;;;;;;;-146.27;45.54;46973.75;5485127;26;20070;-68
2024/04/23 08:34:40;;;;;;;6.20;3.13;;;;;;;-146.27;46.85;46935.94;5469010;26;20475;-68
2024/04/23 08:37:12;;;;;;;5.25;2.95;;;;;;;-146.27;48.36;46931.94;5482754;26;20008;-70
2024/04/23 08:39:38;;;;;;;7.10;3.38;;;;;;;-146.27;48.59;46918.00;5463207;26;20006;-68
2024/04/23 08:42:11;;;;;;;5.28;3.72;;;;;;;-146.27;46.86;46914.03;5485200;26;20066;-65
2024/04/23 08:44:40;;;;;;;5.20;4.05;;;;;;;-146.27;44.14;46949.88;5485594;26;20006;-68
2024/04/23 08:47:07;;;;;;;3.75;3.15;;;;;;;-146.27;41.98;46995.66;5474622;26;20120;-68
2024/04/23 08:49:34;;;;;;;6.60;3.13;;;;;;;-146.27;40.21;47101.19;5484492;26;19998;-67
2024/04/23 08:52:00;;;;;;;3.90;3.10;;;;;;;-146.27;42.81;47069.34;5463353;26;20010;-67
2024/04/23 08:54:26;;;;;;;6.32;3.08;;;;;;;-146.27;46.22;47049.41;5449467;26;20062;-67
2024/04/23 08:56:53;;;;;;;4.03;2.78;;;;;;;-146.27;42.70;47103.19;5481472;26;20045;-67
2024/04/23 08:59:21;;;;;;;7.15;3.40;;;;;;;-146.27;41.53;47129.06;5447054;26;20014;-68
2024/04/23 09:01:58;;;;;;;8.48;2.92;;;;;;;-146.27;43.36;47107.16;5465390;26;20010;-68
2024/04/23 09:04:26;;;;;;;4.50;2.92;;;;;;;-146.27;44.65;47111.16;5485151;26;20092;-66
2024/04/23 09:06:52;;;;;;;4.22;3.08;;;;;;;-146.27;42.11;47145.00;5483418;26;20511;-67
2024/04/23 09:09:21;;;;;;;5.93;2.83;;;;;;;-146.27;45.42;47103.19;5460190;26;20010;-66
2024/04/23 09:11:50;;;;;;;4.25;2.45;;;;;;;-146.27;42.69;47160.91;5484679;26;19998;-66
2024/04/23 09:14:16;;;;;;;3.90;2.50;;;;;;;-146.27;42.26;47172.88;5484618;26;19995;-69
2024/04/23 09:16:41;;;;;;;5.00;3.25;;;;;;;-146.27;44.32;47105.16;5484368;26;20461;-69
2024/04/23 09:19:08;;;;;;;3.75;2.95;;;;;;;-146.27;42.21;47168.88;5484138;26;19995;-69
2024/04/23 09:21:33;;;;;;;3.97;3.05;;;;;;;-146.27;43.18;47125.09;5482546;26;19995;-70
2024/04/23 09:24:06;;;;;;;4.82;3.53;;;;;;;-146.27;39.11;47184.81;5478905;26;20441;-70
2024/04/23 09:26:33;;;;;;;7.32;3.17;;;;;;;-146.27;41.76;47145.00;5467197;26;20030;-73
2024/04/23 09:28:59;;;;;;;4.82;2.30;;;;;;;-146.27;37.48;47244.53;5475442;26;19998;-70
2024/04/23 09:31:24;;;;;;;4.22;2.70;;;;;;;-146.27;36.35;47336.16;5469576;26;20007;-69
2024/04/23 09:33:53;;;;;;;2.60;2.03;;;;;;;-146.27;36.15;47366.00;5472517;26;20008;-69
2024/04/23 09:36:26;;;;;;;6.68;3.83;;;;;;;-146.27;40.19;47324.19;5475515;26;20010;-71
2024/04/23 09:38:53;;;;;;;5.55;3.00;;;;;;;-146.27;41.53;47296.31;5469823;26;20067;-69
2024/04/23 09:41:20;;;;;;;3.70;2.50;;;;;;;-146.27;39.93;47280.38;5486174;26;19998;-68
2024/04/23 09:44:00;;;;;;;4.30;2.95;;;;;;;-146.27;40.10;47274.41;5466449;26;19994;-69
2024/04/23 09:46:30;;;;;;;4.05;2.65;;;;;;;-146.27;38.05;47348.09;5476807;26;20379;-69
2024/04/23 09:48:59;;;;;;;4.30;2.22;;;;;;;-146.27;36.99;47375.97;5477317;26;20003;-69
2024/04/23 09:51:28;;;;;;;2.30;2.08;;;;;;;-146.27;33.20;47509.38;5484012;26;19994;-69
2024/04/23 09:53:54;;;;;;;5.13;2.75;;;;;;;-146.27;35.38;47521.31;5473910;26;20013;-70
2024/04/23 09:56:21;;;;;;;5.53;3.33;;;;;;;-146.27;35.54;47511.38;5470657;26;20625;-69
2024/04/23 09:58:47;;;;;;;5.28;2.28;;;;;;;-146.27;35.46;47485.47;5467481;26;20002;-69
2024/04/23 10:01:18;;;;;;;3.00;2.28;;;;;;;-146.27;33.59;47527.31;5486808;26;20010;-69
2024/04/23 10:03:45;;;;;;;5.65;2.65;;;;;;;-146.27;33.96;47585.06;5467132;26;20026;-70
2024/04/23 10:06:15;;;;;;;4.10;2.40;;;;;;;-146.27;34.24;47555.19;5461423;26;20002;-69
2024/04/23 10:09:03;;;;;;;5.88;2.42;;;;;;;-146.27;33.98;47583.06;5468094;26;20015;-69
2024/04/23 10:11:40;;;;;;;2.65;2.40;;;;;;;-146.27;34.50;47543.22;5477287;26;20017;-69
2024/04/23 10:14:45;;;;;;;5.65;2.92;;;;;;;-146.27;35.47;47507.38;5470380;26;20198;-69
2024/04/23 10:17:24;;;;;;;4.00;2.25;;;;;;;-146.27;35.03;47543.22;5457741;26;20002;-69
2024/04/23 10:19:50;;;;;;;4.47;2.70;;;;;;;-146.27;33.20;47595.00;5477325;26;19998;-71
2024/04/23 10:22:16;;;;;;;3.22;2.20;;;;;;;-146.27;33.77;47591.03;5467298;26;20316;-70
2024/04/23 10:24:42;;;;;;;5.70;3.17;;;;;;;-146.27;35.49;47499.44;5458708;26;20450;-68
2024/04/23 10:27:08;;;;;;;3.05;2.47;;;;;;;-146.27;37.95;47491.47;5463513;26;20501;-66
2024/04/23 10:29:35;;;;;;;3.13;2.30;;;;;;;-146.27;35.43;47561.16;5486609;26;20006;-68
2024/04/23 10:32:00;;;;;;;4.00;2.10;;;;;;;-146.27;35.71;47547.22;5487322;26;19998;-67
2024/04/23 10:34:29;;;;;;;3.50;2.15;;;;;;;-146.27;34.74;47563.16;5465194;26;20003;-67
2024/04/23 10:36:56;;;;;;;3.67;2.38;;;;;;;-146.27;36.68;47523.31;5484132;26;19995;-67
2024/04/23 10:39:23;;;;;;;3.75;2.50;;;;;;;-146.27;36.54;47563.16;5469205;26;20440;-69
2024/04/23 10:41:48;;;;;;;4.20;2.00;;;;;;;-146.27;33.90;47579.06;5460733;26;20003;-67
2024/04/23 10:44:19;;;;;;;4.53;2.05;;;;;;;-146.27;31.14;47656.75;5473773;26;20515;-68
2024/04/23 10:46:44;;;;;;;3.90;2.10;;;;;;;-146.27;30.13;47714.50;5465314;26;20340;-67
2024/04/23 10:49:16;;;;;;;2.67;1.73;;;;;;;-146.27;30.98;47694.56;5486325;26;20002;-70
2024/04/23 10:51:45;;;;;;;3.28;2.00;;;;;;;-146.27;30.95;47730.41;5487026;26;20113;-68
2024/04/23 10:54:19;;;;;;;5.30;2.50;;;;;;;-146.27;30.90;47710.50;5470935;26;20584;-69
2024/04/23 10:56:44;;;;;;;4.15;2.25;;;;;;;-146.27;32.47;47670.69;5467416;26;20407;-67
2024/04/23 10:59:16;;;;;;;8.32;2.88;;;;;;;-146.27;33.60;47622.88;5478596;26;19999;-67
2024/04/23 11:02:02;;;;;;;2.20;1.95;;;;;;;-146.27;33.91;47660.72;5487342;26;20006;-70
2024/04/23 11:04:42;;;;;;;6.15;2.17;;;;;;;-146.27;34.22;47672.66;5486794;26;20014;-67
2024/04/23 11:07:12;;;;;;;3.60;1.70;;;;;;;-146.27;33.47;47658.72;5483710;26;20350;-70
2024/04/23 11:09:42;;;;;;;3.03;1.80;;;;;;;-146.27;31.51;47710.50;5486507;26;19998;-66
2024/04/23 11:12:18;;;;;;;3.80;2.10;;;;;;;-146.27;32.72;47686.59;5483317;26;20058;-68
2024/04/23 11:14:44;;;;;;;3.72;2.30;;;;;;;-146.27;34.15;47654.75;5470144;26;20039;-69
2024/04/23 11:17:11;;;;;;;2.80;1.40;;;;;;;-146.27;29.63;47762.28;5480995;26;20009;-67
2024/04/23 11:19:41;;;;;;;3.03;1.08;;;;;;;-146.27;28.43;47790.16;5485990;26;19991;-66
2024/04/23 11:22:09;;;;;;;2.40;0.70;;;;;;;-146.27;28.32;47810.06;5486109;26;20341;-68
2024/04/23 11:24:42;;;;;;;1.58;1.23;;;;;;;-146.27;27.99;47837.97;5486284;26;20002;-66